createdAt,value
2022-08-10T00:02:31.534Z,17.08
2022-08-10T00:06:33.686Z,16.90
2022-08-10T00:10:35.838Z,16.92
2022-08-10T00:14:37.892Z,16.90
2022-08-10T00:18:39.975Z,16.94
2022-08-10T00:22:48.943Z,16.85
2022-08-10T00:28:01.638Z,16.67
2022-08-10T00:31:21.824Z,16.56
2022-08-10T00:35:24.138Z,16.53
2022-08-10T00:39:27.979Z,16.53
2022-08-10T00:43:30.084Z,16.36
2022-08-10T00:47:36.823Z,16.28
2022-08-10T00:51:48.314Z,16.40
2022-08-10T00:57:10.091Z,16.44
2022-08-10T01:00:13.206Z,16.37
2022-08-10T01:04:54.403Z,16.25
2022-08-10T01:09:05.117Z,16.05
2022-08-10T01:13:30.368Z,15.88
2022-08-10T01:17:52.355Z,15.93
2022-08-10T01:22:10.493Z,16.01
2022-08-10T01:26:34.337Z,15.98
2022-08-10T01:30:42.591Z,15.87
2022-08-10T01:34:50.907Z,15.86
2022-08-10T01:38:54.384Z,15.77
2022-08-10T01:42:59.663Z,15.68
2022-08-10T01:47:33.435Z,15.70
2022-08-10T01:52:00.496Z,15.60
2022-08-10T01:56:03.986Z,15.48
2022-08-10T02:00:07.082Z,15.45
2022-08-10T02:04:12.099Z,15.48
2022-08-10T02:08:17.443Z,15.61
2022-08-10T02:12:28.174Z,15.65
2022-08-10T02:16:32.310Z,15.58
2022-08-10T02:20:43.496Z,15.40
2022-08-10T02:24:47.286Z,15.27
2022-08-10T02:28:51.025Z,15.13
2022-08-10T02:32:54.573Z,15.17
2022-08-10T02:36:58.190Z,15.14
2022-08-10T02:45:13.465Z,14.97
2022-08-10T02:45:46.764Z,15.02
2022-08-10T02:49:56.828Z,15.02
2022-08-10T02:54:06.662Z,14.95
2022-08-10T02:58:18.067Z,14.91
2022-08-10T03:02:29.614Z,14.93
2022-08-10T03:06:38.920Z,14.78
2022-08-10T03:10:43.874Z,14.82
2022-08-10T03:14:47.486Z,14.88
2022-08-10T03:18:51.354Z,14.96
2022-08-10T03:22:55.365Z,14.87
2022-08-10T03:26:58.090Z,14.81
2022-08-10T03:31:01.489Z,14.67
2022-08-10T03:35:06.084Z,14.54
2022-08-10T03:39:08.256Z,14.53
2022-08-10T03:43:13.467Z,14.53
2022-08-10T03:47:17.315Z,14.40
2022-08-10T03:51:20.334Z,14.36
2022-08-10T03:56:28.498Z,14.26
2022-08-10T03:59:46.896Z,14.27
2022-08-10T04:03:49.015Z,14.31
2022-08-10T04:08:11.160Z,14.27
2022-08-10T04:12:13.539Z,14.28
2022-08-10T04:16:15.564Z,14.24
2022-08-10T04:20:29.856Z,14.20
2022-08-10T04:24:39.500Z,14.19
2022-08-10T04:28:42.293Z,14.27
2022-08-10T04:32:47.482Z,14.27
2022-08-10T04:36:52.716Z,14.34
2022-08-10T04:40:55.397Z,14.47
2022-08-10T04:44:57.496Z,14.79
2022-08-10T04:49:01.729Z,15.90
2022-08-10T04:53:04.645Z,16.98
2022-08-10T04:57:06.794Z,18.70
2022-08-10T05:01:08.891Z,20.06
2022-08-10T05:05:11.624Z,20.17
2022-08-10T05:09:14.212Z,19.34
2022-08-10T05:13:16.250Z,19.42
2022-08-10T05:17:19.660Z,20.79
2022-08-10T05:22:03.693Z,22.70
2022-08-10T05:25:43.738Z,21.39
2022-08-10T05:29:45.833Z,20.36
2022-08-10T05:34:04.793Z,20.06
2022-08-10T05:38:25.527Z,19.69
2022-08-10T05:42:28.919Z,22.51
2022-08-10T05:46:31.038Z,25.10
2022-08-10T05:50:34.734Z,26.69
2022-08-10T05:54:37.216Z,28.78
2022-08-10T05:58:39.549Z,30.63
2022-08-10T06:02:45.581Z,31.86
2022-08-10T06:06:48.901Z,33.03
2022-08-10T06:12:23.309Z,34.04
2022-08-10T06:15:21.325Z,35.14
2022-08-10T06:19:25.327Z,36.26
2022-08-10T06:23:30.377Z,36.64
2022-08-10T06:27:34.187Z,37.06
2022-08-10T06:31:47.059Z,37.60
2022-08-10T06:35:54.913Z,37.12
2022-08-10T06:39:57.038Z,37.86
2022-08-10T06:44:09.202Z,37.53
2022-08-10T06:48:29.757Z,36.08
2022-08-10T06:52:33.609Z,36.85
2022-08-10T06:56:50.896Z,36.73
2022-08-10T07:01:05.779Z,36.55
2022-08-10T07:05:14.943Z,36.08
2022-08-10T07:09:18.584Z,34.46
2022-08-10T07:14:15.427Z,30.62
2022-08-10T07:17:45.013Z,28.10
2022-08-10T07:21:48.052Z,26.75
2022-08-10T07:25:52.936Z,25.92
2022-08-10T07:29:56.377Z,25.35
2022-08-10T07:34:00.118Z,25.15
2022-08-10T07:38:05.495Z,24.97
2022-08-10T07:42:11.297Z,24.71
2022-08-10T07:46:16.999Z,24.68
2022-08-10T07:50:21.025Z,24.49
2022-08-10T07:54:25.724Z,24.46
2022-08-10T07:58:34.039Z,24.56
2022-08-10T08:02:41.551Z,24.55
2022-08-10T08:06:45.432Z,24.54
2022-08-10T08:10:48.794Z,24.69
2022-08-10T08:14:52.716Z,24.84
2022-08-10T08:24:05.993Z,25.12
2022-08-10T08:27:47.768Z,25.24
2022-08-10T08:32:00.838Z,25.29
2022-08-10T08:36:05.487Z,25.44
2022-08-10T08:40:14.758Z,25.58
2022-08-10T08:44:38.339Z,25.66
2022-08-10T08:49:04.996Z,25.62
2022-08-10T08:53:25.527Z,25.68
2022-08-10T08:58:02.929Z,25.79
2022-08-10T09:02:18.208Z,25.97
2022-08-10T09:06:51.598Z,26.07
2022-08-10T09:11:08.549Z,26.06
2022-08-10T09:15:41.771Z,26.14
2022-08-10T09:19:55.160Z,26.13
2022-08-10T09:24:11.814Z,26.20
2022-08-10T09:28:26.810Z,26.27
2022-08-10T09:36:17.012Z,26.37
2022-08-10T09:37:16.765Z,26.45
2022-08-10T09:41:56.129Z,26.61
2022-08-10T09:46:15.265Z,26.77
2022-08-10T09:51:22.667Z,26.86
2022-08-10T09:55:20.469Z,27.00
2022-08-10T09:59:59.647Z,26.89
2022-08-10T10:04:06.809Z,26.87
2022-08-10T10:08:58.282Z,27.09
2022-08-10T10:13:16.944Z,27.25
2022-08-10T10:17:28.149Z,27.32
2022-08-10T10:21:56.219Z,27.44
2022-08-10T10:26:18.483Z,27.82
2022-08-10T10:30:24.827Z,27.95
2022-08-10T10:34:46.136Z,28.05
2022-08-10T10:38:49.626Z,28.10
2022-08-10T10:43:07.567Z,28.07
2022-08-10T10:47:22.745Z,27.90
2022-08-10T10:51:28.862Z,27.94
2022-08-10T10:56:14.622Z,27.96
2022-08-10T11:00:15.627Z,27.93
2022-08-10T11:04:36.408Z,27.98
2022-08-10T11:08:47.182Z,28.15
2022-08-10T11:14:25.530Z,28.29
2022-08-10T11:17:45.998Z,28.19
2022-08-10T11:22:28.051Z,28.21
2022-08-10T11:26:41.236Z,28.04
2022-08-10T11:30:50.280Z,28.22
2022-08-10T11:35:12.030Z,28.17
2022-08-10T11:39:21.254Z,28.22
2022-08-10T11:43:28.791Z,28.23
2022-08-10T11:47:30.760Z,28.37
2022-08-10T11:51:50.482Z,28.59
2022-08-10T11:55:58.027Z,28.60
2022-08-10T12:00:00.485Z,28.68
2022-08-10T12:04:11.890Z,28.63
2022-08-10T12:10:07.079Z,28.56
2022-08-10T12:12:52.879Z,28.56
2022-08-10T12:17:03.365Z,28.67
2022-08-10T12:21:15.798Z,28.64
2022-08-10T12:25:55.683Z,28.75
2022-08-10T12:30:06.493Z,28.90
2022-08-10T12:34:31.940Z,29.02
2022-08-10T12:39:01.498Z,29.09
2022-08-10T12:44:03.944Z,29.02
2022-08-10T12:47:46.169Z,29.08
2022-08-10T12:51:57.465Z,29.25
2022-08-10T12:56:01.872Z,29.39
2022-08-10T13:00:07.033Z,29.51
2022-08-10T13:04:28.289Z,29.64
2022-08-10T13:08:51.783Z,29.58
2022-08-10T13:12:56.770Z,29.63
2022-08-10T13:17:01.476Z,29.67
2022-08-10T13:21:19.795Z,29.67
2022-08-10T13:25:28.389Z,29.73
2022-08-10T13:29:36.036Z,29.73
2022-08-10T13:34:03.726Z,29.67
2022-08-10T13:38:10.202Z,29.60
2022-08-10T13:42:13.922Z,29.55
2022-08-10T13:46:22.772Z,29.54
2022-08-10T13:50:34.597Z,29.67
2022-08-10T13:54:41.672Z,29.71
2022-08-10T13:58:47.832Z,29.66
2022-08-10T14:03:08.102Z,29.57
2022-08-10T14:07:12.211Z,29.64
2022-08-10T14:11:17.934Z,29.79
2022-08-10T14:15:28.804Z,29.79
2022-08-10T14:19:33.081Z,29.70
2022-08-10T14:23:48.584Z,29.65
2022-08-10T14:28:02.906Z,29.61
2022-08-10T14:32:09.182Z,29.71
2022-08-10T14:36:22.374Z,29.70
2022-08-10T14:40:38.422Z,29.72
2022-08-10T14:45:21.791Z,29.70
2022-08-10T14:49:27.322Z,29.80
2022-08-10T14:53:34.615Z,29.81
2022-08-10T14:58:16.499Z,29.79
2022-08-10T15:02:40.391Z,29.90
2022-08-10T15:06:36.820Z,29.92
2022-08-10T15:10:39.632Z,29.88
2022-08-10T15:14:45.827Z,29.94
2022-08-10T15:18:58.309Z,29.91
2022-08-10T15:23:06.820Z,29.79
2022-08-10T15:27:10.602Z,29.70
2022-08-10T15:31:21.539Z,29.62
2022-08-10T15:35:47.824Z,29.74
2022-08-10T15:40:24.657Z,29.77
2022-08-10T15:44:15.888Z,29.72
2022-08-10T15:48:18.430Z,29.77
2022-08-10T15:53:01.615Z,29.78
2022-08-10T15:57:04.365Z,29.81
2022-08-10T16:02:13.065Z,29.78
2022-08-10T16:06:01.379Z,29.67
2022-08-10T16:10:26.454Z,29.60
2022-08-10T16:14:35.794Z,29.55
2022-08-10T16:18:40.948Z,29.60
2022-08-10T16:22:43.205Z,29.54
2022-08-10T16:26:50.205Z,29.51
2022-08-10T16:30:54.927Z,29.46
2022-08-10T16:34:59.399Z,29.31
2022-08-10T16:39:03.216Z,29.26
2022-08-10T16:43:09.185Z,29.29
2022-08-10T16:47:12.297Z,29.33
2022-08-10T16:51:20.698Z,29.33
2022-08-10T16:55:48.305Z,29.24
2022-08-10T16:59:48.199Z,29.09
2022-08-10T17:04:07.862Z,28.99
2022-08-10T17:08:17.591Z,28.88
2022-08-10T17:12:24.906Z,28.77
2022-08-10T17:16:36.526Z,28.68
2022-08-10T17:20:41.026Z,28.57
2022-08-10T17:25:21.242Z,28.46
2022-08-10T17:29:59.098Z,28.38
2022-08-10T17:34:09.363Z,28.33
2022-08-10T17:38:38.066Z,28.23
2022-08-10T17:42:44.432Z,28.09
2022-08-10T17:46:46.900Z,27.96
2022-08-10T17:50:51.184Z,27.87
2022-08-10T17:54:59.377Z,27.72
2022-08-10T17:59:10.018Z,27.58
2022-08-10T18:03:25.602Z,27.41
2022-08-10T18:07:38.398Z,27.24
2022-08-10T18:11:43.441Z,27.08
2022-08-10T18:15:48.232Z,26.94
2022-08-10T18:19:58.083Z,26.83
2022-08-10T18:24:06.544Z,26.68
2022-08-10T18:28:14.845Z,26.50
2022-08-10T18:32:20.253Z,26.38
2022-08-10T18:36:25.671Z,26.17
2022-08-10T18:40:36.204Z,26.01
2022-08-10T18:44:52.550Z,25.88
2022-08-10T18:49:06.255Z,25.75
2022-08-10T18:53:18.385Z,25.61
2022-08-10T18:57:39.319Z,25.45
2022-08-10T19:02:01.569Z,25.28
2022-08-10T19:06:26.014Z,25.13
2022-08-10T19:10:44.993Z,24.94
2022-08-10T19:15:09.814Z,24.75
2022-08-10T19:19:41.091Z,24.58
2022-08-10T19:23:52.156Z,24.43
2022-08-10T19:28:15.408Z,24.28
2022-08-10T19:32:27.337Z,24.13
2022-08-10T19:36:44.420Z,23.99
2022-08-10T19:41:09.645Z,23.81
2022-08-10T19:46:02.137Z,23.67
2022-08-10T19:49:59.158Z,23.56
2022-08-10T19:54:15.674Z,23.41
2022-08-10T19:58:32.111Z,23.27
2022-08-10T20:02:46.760Z,23.20
2022-08-10T20:07:18.841Z,23.10
2022-08-10T20:11:47.430Z,22.98
2022-08-10T20:16:06.986Z,22.86
2022-08-10T20:20:13.673Z,22.79
2022-08-10T20:25:01.426Z,22.72
2022-08-10T20:29:03.444Z,22.67
2022-08-10T20:33:26.187Z,22.55
2022-08-10T20:38:02.780Z,22.45
2022-08-10T20:42:02.802Z,22.34
2022-08-10T20:46:24.714Z,22.31
2022-08-10T20:50:42.771Z,22.25
2022-08-10T20:55:00.123Z,22.17
2022-08-10T20:59:20.515Z,22.09
2022-08-10T21:03:51.409Z,21.87
2022-08-10T21:08:15.283Z,21.75
2022-08-10T21:12:45.309Z,21.61
2022-08-10T21:17:18.188Z,21.36
2022-08-10T21:21:43.343Z,21.22
2022-08-10T21:26:12.608Z,21.10
2022-08-10T21:30:20.109Z,20.87
2022-08-10T21:35:02.177Z,20.63
2022-08-10T21:39:42.526Z,20.47
2022-08-10T21:44:32.706Z,20.35
2022-08-10T21:49:01.203Z,20.24
2022-08-10T21:53:44.505Z,20.15
2022-08-10T21:58:27.475Z,19.90
2022-08-10T22:02:51.874Z,19.84
2022-08-10T22:07:16.196Z,19.79
2022-08-10T22:11:42.971Z,19.66
2022-08-10T22:16:11.978Z,19.46
2022-08-10T22:20:44.485Z,19.09
2022-08-10T22:25:16.884Z,18.97
2022-08-10T22:29:50.122Z,18.91
2022-08-10T22:34:41.596Z,18.93
2022-08-10T22:40:05.599Z,18.74
2022-08-10T22:44:02.414Z,18.62
2022-08-10T22:48:25.067Z,18.46
2022-08-10T22:52:31.104Z,18.39
2022-08-10T22:57:11.870Z,18.44
2022-08-10T23:02:07.972Z,18.36
2022-08-10T23:06:11.347Z,18.32
2022-08-10T23:10:16.476Z,18.30
2022-08-10T23:14:20.518Z,18.19
2022-08-10T23:18:56.497Z,17.94
2022-08-10T23:23:09.026Z,17.70
2022-08-10T23:27:37.911Z,17.62
2022-08-10T23:32:00.891Z,17.61
2022-08-10T23:36:05.557Z,17.52
2022-08-10T23:40:24.967Z,17.38
2022-08-10T23:44:32.630Z,17.21
2022-08-10T23:48:39.642Z,17.18
2022-08-10T23:52:54.432Z,17.14
2022-08-10T23:57:00.986Z,17.10
